createdAt,value
2023-08-10T03:32:14.409Z,15.04
2023-08-10T03:34:41.940Z,15.10
2023-08-10T03:37:09.171Z,15.03
2023-08-10T03:39:37.140Z,15.09
2023-08-10T03:42:06.408Z,15.13
2023-08-10T03:44:33.810Z,15.10
2023-08-10T03:47:00.837Z,15.10
2023-08-10T03:49:27.906Z,15.01
2023-08-10T03:51:55.804Z,15.01
2023-08-10T03:54:23.116Z,14.98
2023-08-10T03:56:50.109Z,15.01
2023-08-10T03:59:17.602Z,14.96
2023-08-10T04:01:44.680Z,15.00
2023-08-10T04:04:11.754Z,14.86
2023-08-10T04:06:39.016Z,14.67
2023-08-10T04:09:06.335Z,14.65
2023-08-10T04:11:33.601Z,14.66
2023-08-10T04:14:00.731Z,14.58
2023-08-10T04:16:27.795Z,14.25
2023-08-10T04:18:54.906Z,14.39
2023-08-10T04:21:22.382Z,14.53
2023-08-10T04:23:49.442Z,14.69
2023-08-10T04:26:16.553Z,14.77
2023-08-10T04:28:43.994Z,14.78
2023-08-10T04:31:11.127Z,14.84
2023-08-10T04:33:38.553Z,14.84
2023-08-10T04:36:05.911Z,14.86
2023-08-10T04:38:33.478Z,14.88
2023-08-10T04:41:00.592Z,14.99
2023-08-10T04:43:27.585Z,14.98
2023-08-10T04:45:55.025Z,14.98
2023-08-10T04:48:22.121Z,15.11
2023-08-10T04:50:49.179Z,15.22
2023-08-10T04:53:16.215Z,15.24
2023-08-10T04:55:43.312Z,15.29
2023-08-10T04:58:10.431Z,15.40
2023-08-10T05:00:38.348Z,15.51
2023-08-10T05:03:05.689Z,15.63
2023-08-10T05:05:32.837Z,15.74
2023-08-10T05:07:59.881Z,15.81
2023-08-10T05:10:26.998Z,15.92
2023-08-10T05:12:54.212Z,16.02
2023-08-10T05:15:21.285Z,16.09
2023-08-10T05:17:48.417Z,16.21
2023-08-10T05:20:15.819Z,16.16
2023-08-10T05:22:43.719Z,16.33
2023-08-10T05:25:13.400Z,16.53
2023-08-10T05:27:41.761Z,16.68
2023-08-10T05:30:15.366Z,16.83
2023-08-10T05:32:45.314Z,16.93
2023-08-10T05:35:13.490Z,17.02
2023-08-10T05:37:40.573Z,17.14
2023-08-10T05:40:11.165Z,17.34
2023-08-10T05:42:41.843Z,17.47
2023-08-10T05:45:10.041Z,17.61
2023-08-10T05:47:37.307Z,17.65
2023-08-10T05:50:04.946Z,17.71
2023-08-10T05:52:32.072Z,17.80
2023-08-10T05:54:59.139Z,18.07
2023-08-10T05:57:26.192Z,18.30
2023-08-10T05:59:53.706Z,18.62
2023-08-10T06:02:20.918Z,18.82
2023-08-10T06:04:48.511Z,18.92
2023-08-10T06:07:15.665Z,19.03
2023-08-10T06:09:42.818Z,19.24
2023-08-10T06:12:10.165Z,19.37
2023-08-10T06:14:37.940Z,19.47
2023-08-10T06:17:06.197Z,19.08
2023-08-10T06:19:33.318Z,19.18
2023-08-10T06:22:00.540Z,19.51
2023-08-10T06:24:27.901Z,19.18
2023-08-10T06:26:55.017Z,18.58
2023-08-10T06:29:22.459Z,18.87
2023-08-10T06:31:51.104Z,18.92
2023-08-10T06:34:20.290Z,18.41
2023-08-10T06:36:48.004Z,18.20
2023-08-10T06:39:15.291Z,18.57
2023-08-10T06:41:42.475Z,19.01
2023-08-10T06:44:10.264Z,19.56
2023-08-10T06:46:37.502Z,19.40
2023-08-10T06:49:05.254Z,19.47
2023-08-10T06:51:32.529Z,19.65
2023-08-10T06:53:59.744Z,20.16
2023-08-10T06:56:26.817Z,20.49
2023-08-10T07:01:24.012Z,19.68
2023-08-10T07:03:51.117Z,19.76
2023-08-10T07:06:18.893Z,20.34
2023-08-10T07:08:46.615Z,20.55
2023-08-10T07:11:13.714Z,20.71
2023-08-10T07:13:42.399Z,19.10
2023-08-10T07:16:09.411Z,20.10
2023-08-10T07:18:36.472Z,20.64
2023-08-10T07:21:03.947Z,20.96
2023-08-10T07:23:31.628Z,20.65
2023-08-10T07:25:58.703Z,20.55
2023-08-10T07:28:26.680Z,19.51
2023-08-10T07:30:54.291Z,18.94
2023-08-10T07:33:21.575Z,19.61
2023-08-10T07:35:48.697Z,19.71
2023-08-10T07:38:17.453Z,18.73
2023-08-10T07:40:44.766Z,19.36
2023-08-10T07:43:11.872Z,20.66
2023-08-10T07:45:39.006Z,20.87
2023-08-10T07:48:06.494Z,19.88
2023-08-10T07:50:33.639Z,19.85
2023-08-10T07:53:00.782Z,19.80
2023-08-10T07:55:27.878Z,20.04
2023-08-10T07:57:54.897Z,20.69
2023-08-10T08:00:21.999Z,19.29
2023-08-10T08:02:51.326Z,20.24
2023-08-10T08:05:18.931Z,20.50
2023-08-10T08:07:46.455Z,21.47
2023-08-10T08:10:13.582Z,21.44
2023-08-10T08:12:40.753Z,21.05
2023-08-10T08:15:08.092Z,20.72
2023-08-10T08:18:13.001Z,21.10
2023-08-10T08:20:40.013Z,21.81
2023-08-10T08:23:08.112Z,21.71
2023-08-10T08:25:35.331Z,21.31
2023-08-10T08:28:02.891Z,21.93
2023-08-10T08:30:30.637Z,22.25
2023-08-10T08:32:58.466Z,22.02
2023-08-10T08:35:26.286Z,22.59
2023-08-10T08:37:53.572Z,22.71
2023-08-10T08:40:21.030Z,23.17
2023-08-10T08:42:49.172Z,23.08
2023-08-10T08:45:17.306Z,23.03
2023-08-10T08:47:45.606Z,22.89
2023-08-10T08:50:13.068Z,22.66
2023-08-10T08:52:41.025Z,23.13
2023-08-10T08:55:09.089Z,22.85
2023-08-10T08:57:36.210Z,22.71
2023-08-10T09:00:04.044Z,22.81
2023-08-10T09:02:32.141Z,23.52
2023-08-10T09:05:00.752Z,22.85
2023-08-10T09:07:28.782Z,22.45
2023-08-10T09:09:56.238Z,21.22
2023-08-10T09:12:36.110Z,21.33
2023-08-10T09:15:13.767Z,21.83
2023-08-10T09:17:48.156Z,21.42
2023-08-10T09:20:22.507Z,21.83
2023-08-10T09:22:51.379Z,21.20
2023-08-10T09:25:18.429Z,20.89
2023-08-10T09:27:46.283Z,22.03
2023-08-10T09:30:13.319Z,20.47
2023-08-10T09:32:40.802Z,20.70
2023-08-10T09:35:13.031Z,20.71
2023-08-10T09:37:40.102Z,21.44
2023-08-10T09:40:08.584Z,21.71
2023-08-10T09:42:35.892Z,22.23
2023-08-10T09:45:11.302Z,22.44
2023-08-10T09:47:39.704Z,22.18
2023-08-10T09:50:13.306Z,22.76
2023-08-10T09:52:40.842Z,23.72
2023-08-10T09:55:10.370Z,23.70
2023-08-10T09:57:45.251Z,23.31
2023-08-10T10:00:20.481Z,21.57
2023-08-10T10:02:48.143Z,21.64
2023-08-10T10:07:50.403Z,21.70
2023-08-10T10:10:17.487Z,20.93
2023-08-10T10:12:44.555Z,21.82
2023-08-10T10:15:11.597Z,22.71
2023-08-10T10:17:38.696Z,23.24
2023-08-10T10:20:08.612Z,24.00
2023-08-10T10:22:35.653Z,23.95
2023-08-10T10:25:03.646Z,23.86
2023-08-10T10:27:39.609Z,22.83
2023-08-10T10:30:14.089Z,23.66
2023-08-10T10:32:48.386Z,23.11
2023-08-10T10:35:25.726Z,23.93
2023-08-10T10:37:59.847Z,24.25
2023-08-10T10:40:27.344Z,24.38
2023-08-10T10:43:12.804Z,24.46
2023-08-10T10:45:43.240Z,24.22
2023-08-10T10:48:13.549Z,24.52
2023-08-10T10:50:40.780Z,25.31
2023-08-10T10:53:11.437Z,25.40
2023-08-10T10:55:43.135Z,25.32
2023-08-10T10:58:12.329Z,25.21
2023-08-10T11:00:39.765Z,24.86
2023-08-10T11:03:08.101Z,24.77
2023-08-10T11:05:35.215Z,24.85
2023-08-10T11:08:07.089Z,23.67
2023-08-10T11:10:38.578Z,23.76
2023-08-10T11:13:06.582Z,24.69
2023-08-10T11:15:33.927Z,24.42
2023-08-10T11:18:01.179Z,23.58
2023-08-10T11:20:28.207Z,23.30
2023-08-10T11:22:55.388Z,23.70
2023-08-10T11:25:26.502Z,23.21
2023-08-10T11:27:54.772Z,22.84
2023-08-10T11:30:22.933Z,23.55
2023-08-10T11:32:53.542Z,23.10
2023-08-10T11:35:22.451Z,24.45
2023-08-10T11:37:52.870Z,24.16
2023-08-10T11:40:24.025Z,25.35
2023-08-10T11:43:04.828Z,25.88
2023-08-10T11:45:32.211Z,25.48
2023-08-10T11:50:33.315Z,25.92
2023-08-10T11:53:12.908Z,25.52
2023-08-10T11:55:50.365Z,24.63
2023-08-10T11:58:18.347Z,25.68
2023-08-10T12:00:50.796Z,25.64
2023-08-10T12:03:35.640Z,24.23
2023-08-10T12:06:06.641Z,24.74
2023-08-10T12:08:40.463Z,25.87
2023-08-10T12:11:15.701Z,26.34
2023-08-10T12:13:52.796Z,26.51
2023-08-10T12:16:21.077Z,26.17
2023-08-10T12:18:48.854Z,26.12
2023-08-10T12:21:16.176Z,25.55
2023-08-10T12:23:43.941Z,25.87
2023-08-10T12:26:13.189Z,25.82
2023-08-10T12:28:40.501Z,26.21
2023-08-10T12:31:08.241Z,25.22
2023-08-10T12:33:35.638Z,25.19
2023-08-10T12:36:03.669Z,25.28
2023-08-10T12:38:30.766Z,25.15
2023-08-10T12:40:58.420Z,24.43
2023-08-10T12:43:25.545Z,25.47
2023-08-10T12:45:53.242Z,25.88
2023-08-10T12:48:20.386Z,25.67
2023-08-10T12:50:47.451Z,26.47
2023-08-10T12:53:14.472Z,26.86
2023-08-10T12:55:41.566Z,26.19
2023-08-10T12:58:12.678Z,25.37
2023-08-10T13:00:39.850Z,25.95
2023-08-10T13:03:06.888Z,26.12
2023-08-10T13:05:34.044Z,24.04
2023-08-10T13:08:01.176Z,24.09
2023-08-10T13:10:28.261Z,24.16
2023-08-10T13:12:55.463Z,23.90
2023-08-10T13:15:22.539Z,24.95
2023-08-10T13:17:49.679Z,25.64
2023-08-10T13:20:17.702Z,25.73
2023-08-10T13:22:45.633Z,25.84
2023-08-10T13:25:12.795Z,26.42
2023-08-10T13:27:39.834Z,26.02
2023-08-10T13:30:07.523Z,25.67
2023-08-10T13:32:34.582Z,26.32
2023-08-10T13:35:01.803Z,26.74
2023-08-10T13:37:28.876Z,26.44
2023-08-10T13:39:55.935Z,26.88
2023-08-10T13:42:23.080Z,26.15
2023-08-10T13:44:50.124Z,25.10
2023-08-10T13:47:17.222Z,25.44
2023-08-10T13:49:54.955Z,26.11
2023-08-10T13:52:25.661Z,24.71
2023-08-10T13:54:53.018Z,24.13
2023-08-10T13:57:20.542Z,25.09
2023-08-10T13:59:48.094Z,25.58
2023-08-10T14:02:15.710Z,26.26
2023-08-10T14:04:43.384Z,24.46
2023-08-10T14:07:10.434Z,25.01
2023-08-10T14:09:37.512Z,26.06
2023-08-10T14:12:05.306Z,26.64
2023-08-10T14:14:33.622Z,25.88
2023-08-10T14:17:00.714Z,25.21
2023-08-10T14:19:27.770Z,24.16
2023-08-10T14:21:56.166Z,23.94
2023-08-10T14:24:23.364Z,23.85
2023-08-10T14:26:50.429Z,24.82
2023-08-10T14:29:17.779Z,23.44
2023-08-10T14:31:44.872Z,23.75
2023-08-10T14:34:13.485Z,24.39
2023-08-10T14:36:40.596Z,25.28
2023-08-10T14:39:07.772Z,24.16
2023-08-10T14:41:35.120Z,24.37
2023-08-10T14:44:02.261Z,24.44
2023-08-10T14:46:29.390Z,23.72
2023-08-10T14:48:56.679Z,24.07
2023-08-10T14:51:23.765Z,24.14
2023-08-10T14:53:50.830Z,24.58
2023-08-10T14:56:18.003Z,25.37
2023-08-10T14:58:45.403Z,26.18
2023-08-10T15:01:13.999Z,26.18
2023-08-10T15:03:41.101Z,26.76
2023-08-10T15:06:08.675Z,25.15
2023-08-10T15:08:36.260Z,24.21
2023-08-10T15:11:04.985Z,24.02
2023-08-10T15:13:33.113Z,24.87
2023-08-10T15:16:00.267Z,24.31
2023-08-10T15:18:27.345Z,25.39
2023-08-10T15:20:54.490Z,25.09
2023-08-10T15:25:53.803Z,25.33
2023-08-10T15:28:20.902Z,25.31
2023-08-10T15:30:49.680Z,25.84
2023-08-10T15:33:16.843Z,26.11
2023-08-10T15:35:45.901Z,26.19
2023-08-10T15:38:13.224Z,26.57
2023-08-10T15:40:40.518Z,26.86
2023-08-10T15:43:07.666Z,26.86
2023-08-10T15:45:36.087Z,24.79
2023-08-10T15:48:03.289Z,24.25
2023-08-10T15:50:30.391Z,25.14
2023-08-10T15:52:57.464Z,25.82
2023-08-10T15:55:24.580Z,26.13
2023-08-10T15:57:51.643Z,24.64
2023-08-10T16:00:19.815Z,25.55
2023-08-10T16:02:46.912Z,26.26
2023-08-10T16:05:13.987Z,26.28
2023-08-10T16:07:41.187Z,25.85
2023-08-10T16:10:08.693Z,25.87
2023-08-10T16:12:36.126Z,26.02
2023-08-10T16:15:04.301Z,25.78
2023-08-10T16:17:31.423Z,25.70
2023-08-10T16:19:59.037Z,25.51
2023-08-10T16:22:26.444Z,25.47
2023-08-10T16:24:53.659Z,25.47
2023-08-10T16:27:20.799Z,25.62
2023-08-10T16:29:48.530Z,25.72
2023-08-10T16:32:16.795Z,25.82
2023-08-10T16:34:45.385Z,25.61
2023-08-10T16:37:12.699Z,25.21
2023-08-10T16:39:39.794Z,24.16
2023-08-10T16:42:08.712Z,24.22
2023-08-10T16:44:36.067Z,24.95
2023-08-10T16:47:03.148Z,24.26
2023-08-10T16:49:30.190Z,23.43
2023-08-10T16:52:01.339Z,23.57
2023-08-10T16:54:28.486Z,24.49
2023-08-10T16:56:56.633Z,25.22
2023-08-10T16:59:23.977Z,25.30
2023-08-10T17:01:51.123Z,25.46
2023-08-10T17:04:18.196Z,25.37
2023-08-10T17:06:45.281Z,25.25
2023-08-10T17:09:12.458Z,24.79
2023-08-10T17:11:39.498Z,24.65
2023-08-10T17:14:06.547Z,25.13
2023-08-10T17:16:33.659Z,25.30
2023-08-10T17:19:00.717Z,25.29
2023-08-10T17:21:27.812Z,25.39
2023-08-10T17:23:54.911Z,24.76
2023-08-10T17:26:21.930Z,24.78
2023-08-10T17:28:49.687Z,25.18
2023-08-10T17:31:16.811Z,24.79
2023-08-10T17:33:43.951Z,24.68
2023-08-10T17:36:11.045Z,24.96
2023-08-10T17:38:40.915Z,24.66
2023-08-10T17:41:08.156Z,24.79
2023-08-10T17:43:36.273Z,25.31
2023-08-10T17:46:03.367Z,25.54
2023-08-10T17:48:30.421Z,25.33
2023-08-10T17:50:58.641Z,25.28
2023-08-10T17:53:25.708Z,25.20
2023-08-10T17:55:53.844Z,24.99
2023-08-10T17:58:20.942Z,25.06
2023-08-10T18:00:48.094Z,24.66
2023-08-10T18:03:17.935Z,24.53
2023-08-10T18:05:45.671Z,24.48
2023-08-10T18:08:12.898Z,24.19
2023-08-10T18:10:58.535Z,23.88
2023-08-10T18:13:25.601Z,23.84
2023-08-10T18:15:52.966Z,23.83
2023-08-10T18:18:20.317Z,23.76
2023-08-10T18:20:47.416Z,23.59
2023-08-10T18:23:14.764Z,23.27
2023-08-10T18:25:41.884Z,22.66
2023-08-10T18:28:09.411Z,22.09
2023-08-10T18:30:36.563Z,21.56
2023-08-10T18:33:03.932Z,21.44
2023-08-10T18:35:31.790Z,21.34
2023-08-10T18:37:59.132Z,21.22
2023-08-10T18:40:39.144Z,21.27
2023-08-10T18:43:06.285Z,20.97
2023-08-10T18:45:34.294Z,20.91
2023-08-10T18:48:01.398Z,21.01
2023-08-10T18:50:28.777Z,20.81
2023-08-10T18:52:55.877Z,20.68
2023-08-10T18:55:23.213Z,20.53
2023-08-10T18:57:50.328Z,21.06
2023-08-10T19:00:17.586Z,21.35
2023-08-10T19:02:44.758Z,21.44
2023-08-10T19:05:11.959Z,21.73
2023-08-10T19:07:44.388Z,21.77
2023-08-10T19:10:11.910Z,21.69
2023-08-10T19:12:39.924Z,21.49
2023-08-10T19:15:07.646Z,21.69
2023-08-10T19:17:34.935Z,21.72
2023-08-10T19:20:02.350Z,21.77
2023-08-10T19:22:29.966Z,21.87
2023-08-10T19:24:57.053Z,21.91
2023-08-10T19:27:24.086Z,21.96
2023-08-10T19:29:51.194Z,21.90
2023-08-10T19:32:18.288Z,21.42
2023-08-10T19:34:45.455Z,21.57
2023-08-10T19:37:12.554Z,21.87
2023-08-10T19:39:39.641Z,21.97
2023-08-10T19:42:07.032Z,22.18
2023-08-10T19:44:34.358Z,22.19
2023-08-10T19:47:01.503Z,22.07
2023-08-10T19:49:28.605Z,22.10
2023-08-10T19:51:55.736Z,22.16
2023-08-10T19:54:22.803Z,21.96
2023-08-10T19:56:49.994Z,21.76
2023-08-10T19:59:17.052Z,21.76
2023-08-10T20:01:44.887Z,21.75
2023-08-10T20:04:12.087Z,21.63
2023-08-10T20:06:39.235Z,21.12
2023-08-10T20:09:06.431Z,21.11
2023-08-10T20:11:33.607Z,21.25
2023-08-10T20:14:00.730Z,21.27
2023-08-10T20:16:27.857Z,21.45
2023-08-10T20:18:55.438Z,21.42
2023-08-10T20:21:23.780Z,21.52
2023-08-10T20:23:51.017Z,21.55
2023-08-10T20:26:19.716Z,21.60
2023-08-10T20:28:47.395Z,21.62
2023-08-10T20:31:14.578Z,21.82
2023-08-10T20:33:45.762Z,21.97
2023-08-10T20:36:13.088Z,21.87
2023-08-10T20:38:40.241Z,21.62
2023-08-10T20:41:07.338Z,21.45
2023-08-10T20:43:34.668Z,21.30
2023-08-10T20:46:03.004Z,21.14
2023-08-10T20:48:30.177Z,21.11
2023-08-10T20:50:57.222Z,21.12
2023-08-10T20:53:24.253Z,21.21
2023-08-10T20:55:51.412Z,21.26
2023-08-10T20:58:19.038Z,21.35
2023-08-10T21:00:46.120Z,21.51
2023-08-10T21:03:13.289Z,21.10
2023-08-10T21:05:40.449Z,21.09
2023-08-10T21:08:07.492Z,20.95
2023-08-10T21:10:34.887Z,20.97
2023-08-10T21:13:02.317Z,21.01
2023-08-10T21:15:29.502Z,20.77
2023-08-10T21:17:56.556Z,20.68
2023-08-10T21:20:24.447Z,20.79
2023-08-10T21:22:51.612Z,20.77
2023-08-10T21:25:18.740Z,20.90
2023-08-10T21:27:45.784Z,20.99
2023-08-10T21:30:12.868Z,20.85
2023-08-10T21:32:40.360Z,20.85
2023-08-10T21:35:07.772Z,20.94
2023-08-10T21:37:36.565Z,20.85
2023-08-10T21:40:04.704Z,20.82
2023-08-10T21:42:31.782Z,20.79
2023-08-10T21:44:58.777Z,20.76
2023-08-10T21:47:25.928Z,20.77
2023-08-10T21:49:52.978Z,20.81
2023-08-10T21:52:20.273Z,20.76
2023-08-10T21:54:47.443Z,20.90
2023-08-10T21:57:14.678Z,20.86
2023-08-10T21:59:41.798Z,20.85
